Time;durP1;ratioP1;P1;durP2;ratioP2;P2;SDS_P1;SDS_P2;PMS_P1;PMS_P2;Temp;Humidity;BMP_temperature;BMP_pressure;BME280_temperature;BME280_humidity;BME280_pressure;Samples;Min_cycle;Max_cycle;Signal;HPM_P1;HPM_P2
2022/09/22 00:01:45;;;;;;;6.03;2.80;;;;;;;9.30;100.00;100743.88;5012244;28;20029;-70
2022/09/22 00:04:12;;;;;;;6.55;3.35;;;;;;;9.26;100.00;100743.03;5012119;28;20026;-69
2022/09/22 00:06:42;;;;;;;5.95;3.08;;;;;;;9.21;100.00;100738.69;4994522;28;20033;-70
2022/09/22 00:09:11;;;;;;;5.32;3.00;;;;;;;9.17;100.00;100731.69;5030965;28;20121;-69
2022/09/22 00:11:41;;;;;;;3.90;2.65;;;;;;;9.22;100.00;100732.50;5032286;28;20131;-70
2022/09/22 00:14:22;;;;;;;4.72;2.83;;;;;;;9.25;100.00;100737.75;5032541;28;20495;-70
2022/09/22 00:17:00;;;;;;;6.32;2.88;;;;;;;9.26;100.00;100734.19;5030173;28;20032;-70
2022/09/22 00:19:28;;;;;;;6.25;3.63;;;;;;;9.23;100.00;100736.88;5032405;28;20022;-70
2022/09/22 00:21:53;;;;;;;4.47;3.00;;;;;;;9.20;100.00;100736.94;5032042;28;20079;-69
2022/09/22 00:24:23;;;;;;;3.47;2.65;;;;;;;9.18;100.00;100738.72;5031494;28;20135;-70
2022/09/22 00:26:50;;;;;;;5.90;2.58;;;;;;;9.17;100.00;100726.38;5028669;28;20079;-69
2022/09/22 00:29:15;;;;;;;5.32;3.22;;;;;;;9.24;100.00;100734.22;5011431;28;20037;-70
2022/09/22 00:31:42;;;;;;;5.00;3.05;;;;;;;9.25;100.00;100730.66;5011428;28;20026;-69
2022/09/22 00:34:13;;;;;;;7.63;2.90;;;;;;;9.23;100.00;100726.28;5011522;28;20022;-70
2022/09/22 00:36:38;;;;;;;7.97;3.00;;;;;;;9.18;100.00;100728.13;5011026;28;20037;-70
2022/09/22 00:39:04;;;;;;;5.55;3.13;;;;;;;9.09;100.00;100728.28;5011555;28;20034;-70
2022/09/22 00:41:35;;;;;;;6.82;2.90;;;;;;;8.98;100.00;100730.19;5011991;28;20060;-70
2022/09/22 00:44:25;;;;;;;6.57;2.97;;;;;;;8.99;100.00;100724.00;4994141;28;20083;-70
2022/09/22 00:47:00;;;;;;;4.85;2.90;;;;;;;8.93;100.00;100721.41;5012027;28;20477;-70
2022/09/22 00:50:03;;;;;;;8.85;3.10;;;;;;;8.85;100.00;100723.31;5011342;28;20096;-69
2022/09/22 00:52:32;;;;;;;6.95;3.75;;;;;;;8.81;100.00;100727.78;5011923;28;20048;-69
2022/09/22 00:55:05;;;;;;;7.28;3.58;;;;;;;8.80;100.00;100726.03;5011750;28;20518;-70
2022/09/22 00:57:34;;;;;;;5.20;2.63;;;;;;;8.75;100.00;100727.00;5023152;28;20029;-70
2022/09/22 01:00:36;;;;;;;5.28;2.65;;;;;;;8.64;100.00;100726.28;5031627;28;20030;-70
2022/09/22 01:03:05;;;;;;;7.50;3.28;;;;;;;8.44;100.00;100709.75;5008490;28;20081;-70
2022/09/22 01:05:32;;;;;;;5.70;2.75;;;;;;;8.52;100.00;100724.66;5009244;28;20108;-70
2022/09/22 01:07:59;;;;;;;4.22;2.80;;;;;;;8.50;100.00;100718.50;5008683;28;20040;-70
2022/09/22 01:10:26;;;;;;;4.78;2.90;;;;;;;8.48;100.00;100727.38;5009030;28;20147;-69
2022/09/22 01:13:06;;;;;;;7.18;3.13;;;;;;;8.42;100.00;100722.16;5008806;28;20067;-70
2022/09/22 01:15:44;;;;;;;7.70;3.03;;;;;;;8.44;100.00;100725.66;5008775;28;20052;-70
2022/09/22 01:18:32;;;;;;;3.97;2.90;;;;;;;8.39;100.00;100728.38;5008653;28;20041;-70
2022/09/22 01:21:14;;;;;;;6.07;2.72;;;;;;;8.40;100.00;100726.59;5008728;28;20065;-70
2022/09/22 01:24:13;;;;;;;4.05;2.47;;;;;;;8.40;100.00;100724.81;5008709;28;20510;-70
2022/09/22 01:26:47;;;;;;;8.65;3.30;;;;;;;8.36;100.00;100717.81;5008643;28;20072;-69
2022/09/22 01:29:33;;;;;;;4.00;2.70;;;;;;;8.26;100.00;100725.88;5008686;28;20132;-70
2022/09/22 01:32:17;;;;;;;3.80;2.60;;;;;;;8.26;100.00;100716.16;5008147;28;20407;-69
2022/09/22 01:35:10;;;;;;;5.85;3.25;;;;;;;8.27;100.00;100701.16;5028123;28;20060;-70
2022/09/22 01:38:08;;;;;;;4.95;3.25;;;;;;;8.23;100.00;100716.22;5025906;28;20036;-69
2022/09/22 01:41:01;;;;;;;8.70;3.33;;;;;;;8.20;100.00;100715.31;4994872;28;20045;-70
2022/09/22 01:43:55;;;;;;;4.45;3.20;;;;;;;8.19;100.00;100708.28;5010080;28;20030;-69
2022/09/22 01:46:29;;;;;;;5.65;3.13;;;;;;;8.21;100.00;100709.13;4986390;28;20033;-70
2022/09/22 01:48:59;;;;;;;5.75;3.13;;;;;;;8.08;100.00;100708.41;5009972;28;20129;-69
2022/09/22 01:51:50;;;;;;;6.82;3.03;;;;;;;8.17;100.00;100710.06;5011537;28;20129;-70
2022/09/22 01:54:26;;;;;;;5.30;3.17;;;;;;;8.13;100.00;100698.63;5010816;28;20482;-70
2022/09/22 01:56:59;;;;;;;6.68;3.78;;;;;;;8.18;100.00;100703.88;5016446;28;20029;-69
2022/09/22 01:59:29;;;;;;;4.43;2.90;;;;;;;8.17;100.00;100710.06;5030418;28;20053;-69
2022/09/22 02:02:02;;;;;;;5.60;2.95;;;;;;;8.14;100.00;100700.38;5030384;28;20122;-68
2022/09/22 02:04:34;;;;;;;3.83;2.50;;;;;;;8.04;100.00;100709.31;5030064;28;20028;-69
2022/09/22 02:07:08;;;;;;;6.05;2.70;;;;;;;8.15;100.00;100711.84;5027583;28;20108;-69
2022/09/22 02:09:37;;;;;;;6.75;2.92;;;;;;;7.96;100.00;100709.41;5023356;28;20456;-69
2022/09/22 02:12:03;;;;;;;4.90;2.97;;;;;;;7.99;100.00;100701.44;5029411;28;20018;-70
2022/09/22 02:14:29;;;;;;;4.10;2.72;;;;;;;8.07;100.00;100717.25;5022262;28;20029;-69
2022/09/22 02:16:56;;;;;;;5.43;2.88;;;;;;;8.11;100.00;100715.41;5009479;28;20034;-70
2022/09/22 02:19:30;;;;;;;5.95;3.15;;;;;;;8.03;100.00;100703.16;5009790;28;20024;-70
2022/09/22 02:21:56;;;;;;;5.90;2.53;;;;;;;8.10;100.00;100713.69;5023798;28;20025;-70
2022/09/22 02:24:38;;;;;;;5.85;2.85;;;;;;;8.11;100.00;100720.72;5029902;28;20037;-70
2022/09/22 02:27:24;;;;;;;5.85;2.78;;;;;;;8.10;100.00;100713.69;5029925;28;20128;-69
2022/09/22 02:29:59;;;;;;;6.00;2.70;;;;;;;8.06;100.00;100715.47;5029964;28;20030;-69
2022/09/22 02:32:27;;;;;;;5.25;2.75;;;;;;;8.05;100.00;100721.69;5029674;28;20040;-69
2022/09/22 02:34:54;;;;;;;4.63;2.85;;;;;;;7.93;100.00;100698.84;5029887;28;20021;-69
2022/09/22 02:37:37;;;;;;;4.97;3.03;;;;;;;8.06;100.00;100704.88;5025187;28;20026;-69
2022/09/22 02:40:16;;;;;;;4.75;2.70;;;;;;;8.11;100.00;100699.53;5010104;28;20477;-69
2022/09/22 02:42:53;;;;;;;3.75;2.60;;;;;;;8.12;100.00;100701.28;5009945;28;20025;-69
2022/09/22 02:45:31;;;;;;;6.57;2.95;;;;;;;8.18;100.00;100695.91;5010019;28;20523;-69
2022/09/22 02:48:03;;;;;;;4.13;2.50;;;;;;;8.13;100.00;100703.94;5009805;28;20033;-70
2022/09/22 02:50:29;;;;;;;3.13;2.20;;;;;;;8.22;100.00;100700.28;5009394;28;20049;-69
2022/09/22 02:53:02;;;;;;;6.90;2.80;;;;;;;8.22;100.00;100702.94;5009680;28;20037;-69
2022/09/22 02:55:27;;;;;;;4.90;2.75;;;;;;;8.21;100.00;100701.16;5009954;28;20034;-69
2022/09/22 02:57:53;;;;;;;3.25;2.28;;;;;;;8.19;100.00;100703.00;5009507;28;20022;-69
2022/09/22 03:00:19;;;;;;;5.13;3.08;;;;;;;8.16;100.00;100701.22;5009749;28;20037;-69
2022/09/22 03:02:44;;;;;;;5.53;3.30;;;;;;;8.16;100.00;100695.94;5009463;28;20030;-69
2022/09/22 03:05:10;;;;;;;6.43;3.10;;;;;;;8.15;100.00;100696.84;5008684;28;20048;-68
2022/09/22 03:07:35;;;;;;;4.95;2.75;;;;;;;8.16;100.00;100698.59;5008597;28;20065;-69
2022/09/22 03:10:01;;;;;;;4.40;3.00;;;;;;;8.18;100.00;100695.91;5008979;28;20030;-68
2022/09/22 03:12:26;;;;;;;5.15;3.20;;;;;;;8.11;100.00;100707.47;5008584;28;20050;-69
2022/09/22 03:14:52;;;;;;;4.85;3.15;;;;;;;8.07;100.00;100701.34;5008714;28;20022;-69
2022/09/22 03:17:17;;;;;;;5.38;2.80;;;;;;;8.02;100.00;100701.38;5008296;28;20083;-69
2022/09/22 03:19:42;;;;;;;6.45;3.63;;;;;;;8.07;100.00;100699.56;5008887;28;20033;-69
2022/09/22 03:22:08;;;;;;;6.82;3.70;;;;;;;7.90;100.00;100671.53;5009093;28;20026;-69
2022/09/22 03:24:33;;;;;;;5.53;2.90;;;;;;;8.03;100.00;100711.09;5008845;28;20026;-69
2022/09/22 03:26:59;;;;;;;5.60;3.55;;;;;;;7.94;100.00;100711.19;5009001;28;20413;-69
2022/09/22 03:29:24;;;;;;;6.28;3.40;;;;;;;7.90;100.00;100696.25;5008889;28;20026;-69
2022/09/22 03:31:49;;;;;;;4.75;3.15;;;;;;;7.87;100.00;100706.00;5009070;28;20030;-69
2022/09/22 03:34:15;;;;;;;5.28;3.03;;;;;;;7.83;100.00;100698.97;5008682;28;20046;-69
2022/09/22 03:36:40;;;;;;;5.43;3.72;;;;;;;7.70;100.00;100708.81;5008802;28;20048;-69
2022/09/22 03:39:06;;;;;;;4.95;3.33;;;;;;;7.64;100.00;100703.56;5008513;28;20018;-69
2022/09/22 03:41:31;;;;;;;6.32;3.45;;;;;;;7.66;100.00;100711.53;5008686;28;20025;-69
2022/09/22 03:43:57;;;;;;;5.30;3.17;;;;;;;7.60;100.00;100701.84;5022326;28;20057;-69
2022/09/22 03:46:23;;;;;;;5.85;3.65;;;;;;;7.38;100.00;100662.38;5027987;28;20052;-68
2022/09/22 03:48:49;;;;;;;5.15;2.95;;;;;;;7.53;100.00;100699.25;5015908;28;20114;-70
2022/09/22 03:51:16;;;;;;;5.18;3.38;;;;;;;7.49;100.00;100703.75;5008437;28;20065;-69
2022/09/22 03:53:41;;;;;;;10.45;4.15;;;;;;;7.48;100.00;100699.31;5008269;28;20037;-70
2022/09/22 03:56:09;;;;;;;4.65;3.00;;;;;;;7.48;100.00;100699.31;5008442;28;20025;-69
2022/09/22 03:58:36;;;;;;;4.80;2.80;;;;;;;7.38;100.00;100689.69;5008403;28;20045;-70
2022/09/22 04:01:02;;;;;;;4.57;3.00;;;;;;;7.42;100.00;100694.09;5008958;28;20446;-70
2022/09/22 04:03:28;;;;;;;5.38;3.13;;;;;;;7.38;100.00;100700.28;5011980;28;20022;-69
2022/09/22 04:05:54;;;;;;;4.63;3.00;;;;;;;7.10;100.00;100651.16;5012772;28;20025;-70
2022/09/22 04:08:19;;;;;;;5.35;3.10;;;;;;;7.33;100.00;100707.38;5012612;28;20060;-70
2022/09/22 04:10:45;;;;;;;4.93;3.65;;;;;;;7.29;100.00;100700.38;5012541;28;20094;-70
2022/09/22 04:13:12;;;;;;;5.57;3.58;;;;;;;7.16;100.00;100685.50;5012433;28;20029;-70
2022/09/22 04:15:37;;;;;;;5.93;3.45;;;;;;;7.24;100.00;100696.91;5029991;28;20116;-70
2022/09/22 04:18:03;;;;;;;7.25;3.95;;;;;;;7.24;100.00;100696.91;5031543;28;20101;-69
2022/09/22 04:20:29;;;;;;;6.82;3.80;;;;;;;7.20;100.00;100702.22;5031382;28;20052;-69
2022/09/22 04:22:55;;;;;;;8.65;4.13;;;;;;;7.20;100.00;100697.81;5030445;28;20843;-69
2022/09/22 04:25:20;;;;;;;7.28;4.25;;;;;;;7.17;100.00;100703.13;5011827;28;20022;-69
2022/09/22 04:27:46;;;;;;;7.80;4.55;;;;;;;7.15;100.00;100702.25;5011575;28;20029;-69
2022/09/22 04:30:11;;;;;;;8.38;4.97;;;;;;;7.16;100.00;100693.44;5011480;28;20026;-69
2022/09/22 04:32:37;;;;;;;8.38;5.13;;;;;;;7.11;100.00;100687.31;5011894;28;20026;-70
2022/09/22 04:35:02;;;;;;;6.88;4.35;;;;;;;7.24;100.00;100702.19;5012170;28;20022;-69
2022/09/22 04:37:28;;;;;;;6.00;4.30;;;;;;;7.27;100.00;100695.97;5011907;28;20051;-70
2022/09/22 04:39:54;;;;;;;5.80;3.80;;;;;;;7.22;100.00;100697.78;5012195;28;20038;-69
2022/09/22 04:42:19;;;;;;;6.72;4.38;;;;;;;7.14;100.00;100700.50;5012057;28;20508;-70
2022/09/22 04:44:45;;;;;;;6.70;4.07;;;;;;;7.08;100.00;100700.56;5012111;28;20029;-69
2022/09/22 04:47:11;;;;;;;5.35;3.45;;;;;;;7.04;100.00;100698.81;5011841;28;20030;-70
2022/09/22 04:49:37;;;;;;;6.97;3.83;;;;;;;6.99;100.00;100705.00;5011588;28;20139;-69
2022/09/22 04:52:03;;;;;;;9.20;4.22;;;;;;;6.84;100.00;100676.91;5011777;28;20081;-69
2022/09/22 04:54:28;;;;;;;6.85;3.88;;;;;;;6.98;100.00;100698.88;5011346;28;20492;-67
2022/09/22 04:56:54;;;;;;;5.45;3.65;;;;;;;6.97;100.00;100694.44;5016967;28;20025;-69
2022/09/22 04:59:19;;;;;;;5.45;3.35;;;;;;;7.03;100.00;100697.06;5030372;28;20033;-68
2022/09/22 05:01:45;;;;;;;6.22;3.92;;;;;;;7.03;100.00;100699.72;5030631;28;20025;-68
2022/09/22 05:04:10;;;;;;;6.35;3.25;;;;;;;7.08;100.00;100695.28;5030553;28;20381;-69
2022/09/22 05:06:36;;;;;;;6.68;3.25;;;;;;;7.08;100.00;100691.75;5030559;28;20494;-69
2022/09/22 05:09:02;;;;;;;5.68;3.50;;;;;;;7.01;100.00;100688.25;5012008;28;20137;-69
2022/09/22 05:11:29;;;;;;;5.25;3.33;;;;;;;6.98;100.00;100704.16;5011601;28;20029;-69
2022/09/22 05:13:57;;;;;;;5.40;2.55;;;;;;;6.93;100.00;100700.66;5011437;28;20421;-69
2022/09/22 05:16:23;;;;;;;8.48;3.15;;;;;;;6.96;100.00;100705.03;5011691;28;20026;-69
2022/09/22 05:18:49;;;;;;;7.43;3.53;;;;;;;6.97;100.00;100712.09;5011397;28;20047;-69
2022/09/22 05:21:18;;;;;;;6.68;3.30;;;;;;;6.83;100.00;100698.97;5011352;28;20034;-69
2022/09/22 05:23:44;;;;;;;6.47;3.22;;;;;;;6.88;100.00;100718.34;5011095;28;20037;-68
2022/09/22 05:26:09;;;;;;;8.23;3.88;;;;;;;6.92;100.00;100717.41;5011251;28;20029;-68
2022/09/22 05:28:35;;;;;;;6.90;4.22;;;;;;;6.94;100.00;100718.28;5011231;28;20115;-68
2022/09/22 05:31:01;;;;;;;6.35;3.95;;;;;;;6.99;100.00;100718.25;5011213;28;20045;-69
2022/09/22 05:33:27;;;;;;;8.20;4.25;;;;;;;7.02;100.00;100727.03;5011239;28;20050;-69
2022/09/22 05:35:52;;;;;;;7.10;4.07;;;;;;;7.04;100.00;100724.38;5010928;28;20120;-68
2022/09/22 05:38:18;;;;;;;6.32;3.85;;;;;;;7.04;100.00;100725.25;5011033;28;20434;-68
2022/09/22 05:40:46;;;;;;;8.98;4.75;;;;;;;7.06;100.00;100722.59;5010776;28;20048;-69
2022/09/22 05:43:12;;;;;;;10.65;4.47;;;;;;;7.05;100.00;100720.88;5010803;28;20113;-69
2022/09/22 05:45:38;;;;;;;8.60;4.45;;;;;;;7.04;100.00;100722.63;5020016;28;20140;-69
2022/09/22 05:48:03;;;;;;;10.95;5.03;;;;;;;7.07;100.00;100724.38;5010219;28;20108;-68
2022/09/22 05:50:29;;;;;;;11.43;5.65;;;;;;;7.01;100.00;100720.00;5009841;28;20854;-69
2022/09/22 05:53:05;;;;;;;7.40;4.45;;;;;;;7.05;100.00;100721.72;5010174;28;20053;-68
2022/09/22 05:55:32;;;;;;;10.48;5.18;;;;;;;7.14;100.00;100734.00;5010161;28;20033;-68
2022/09/22 05:58:00;;;;;;;9.18;3.92;;;;;;;7.20;100.00;100726.91;5025012;28;20029;-69
2022/09/22 06:00:27;;;;;;;7.20;4.40;;;;;;;7.27;100.00;100728.63;5029504;28;20067;-69
2022/09/22 06:02:52;;;;;;;7.85;4.18;;;;;;;7.40;100.00;100730.28;5029991;28;20029;-69
2022/09/22 06:05:17;;;;;;;7.97;4.85;;;;;;;7.53;100.00;100716.03;5031205;28;20033;-69
2022/09/22 06:07:43;;;;;;;7.13;4.60;;;;;;;7.67;100.00;100722.09;5024095;28;20064;-69
2022/09/22 06:10:11;;;;;;;7.95;4.25;;;;;;;7.81;100.00;100719.28;5010512;28;20026;-67
2022/09/22 06:12:38;;;;;;;9.82;4.20;;;;;;;7.99;100.00;100719.09;5010396;28;20042;-68
2022/09/22 06:15:04;;;;;;;6.75;3.90;;;;;;;8.24;100.00;100701.19;5010229;28;20032;-68
2022/09/22 06:17:30;;;;;;;6.95;3.95;;;;;;;9.22;100.00;100712.13;5012669;28;20543;-68
2022/09/22 06:19:57;;;;;;;8.45;4.95;;;;;;;11.00;100.00;100711.28;5010153;28;20038;-68
2022/09/22 06:22:23;;;;;;;8.30;4.60;;;;;;;13.02;100.00;100706.59;5010098;28;20030;-68
2022/09/22 06:24:49;;;;;;;7.22;4.80;;;;;;;15.79;90.73;100711.38;5021473;28;20113;-69
2022/09/22 06:27:15;;;;;;;6.25;3.72;;;;;;;18.22;70.52;100697.81;5029558;28;20112;-69
2022/09/22 06:29:41;;;;;;;5.03;3.58;;;;;;;20.06;57.28;100704.34;5029296;28;20033;-68
2022/09/22 06:32:09;;;;;;;4.38;2.63;;;;;;;21.48;48.62;100697.97;5029297;28;20080;-69
2022/09/22 06:34:38;;;;;;;4.85;2.75;;;;;;;22.56;44.53;100706.72;5029479;28;20052;-69
2022/09/22 06:37:07;;;;;;;5.03;2.53;;;;;;;23.36;40.91;100709.84;5027101;28;20464;-69
2022/09/22 06:39:35;;;;;;;4.90;2.55;;;;;;;23.60;40.57;100709.88;5009764;28;20061;-68
2022/09/22 06:42:01;;;;;;;4.18;2.35;;;;;;;24.35;39.75;100714.88;5010520;28;20030;-68
2022/09/22 06:44:27;;;;;;;4.82;2.35;;;;;;;24.94;38.28;100718.34;5010504;28;20104;-69
2022/09/22 06:46:53;;;;;;;4.32;2.33;;;;;;;25.37;37.02;100705.69;5010883;28;20419;-67
2022/09/22 06:49:19;;;;;;;3.30;2.08;;;;;;;25.75;37.32;100717.00;5010040;28;20029;-69
2022/09/22 06:51:44;;;;;;;4.25;2.63;;;;;;;26.03;36.36;100709.25;5010241;28;20109;-69
2022/09/22 06:54:10;;;;;;;4.63;2.67;;;;;;;26.20;36.04;100705.91;5010435;28;20129;-68
2022/09/22 06:56:41;;;;;;;6.30;2.15;;;;;;;26.36;35.72;100700.88;5014200;28;20033;-68
2022/09/22 06:59:09;;;;;;;4.90;2.38;;;;;;;26.15;35.33;100705.44;5029381;28;20057;-68
2022/09/22 07:01:34;;;;;;;5.03;2.30;;;;;;;25.82;36.45;100700.97;5029898;28;20401;-69
2022/09/22 07:04:00;;;;;;;7.55;2.45;;;;;;;26.03;35.84;100698.34;5029512;28;20036;-69
2022/09/22 07:06:25;;;;;;;6.15;2.72;;;;;;;26.10;36.41;100694.06;5029401;28;20037;-69
2022/09/22 07:08:51;;;;;;;5.05;2.33;;;;;;;25.66;37.08;100695.97;5012355;28;20120;-69
2022/09/22 07:11:19;;;;;;;6.93;2.60;;;;;;;26.09;36.88;100689.63;5009734;28;20397;-69
2022/09/22 07:13:45;;;;;;;4.88;2.80;;;;;;;26.59;36.01;100691.56;5009796;28;20041;-69
2022/09/22 07:16:16;;;;;;;4.18;2.35;;;;;;;26.98;35.21;100690.75;5010082;28;20026;-69
2022/09/22 07:18:47;;;;;;;5.93;2.85;;;;;;;27.00;34.69;100686.03;5009765;28;20026;-68
2022/09/22 07:21:14;;;;;;;5.03;2.40;;;;;;;26.05;36.19;100683.56;5009862;28;20545;-69
2022/09/22 07:23:40;;;;;;;5.07;2.60;;;;;;;26.06;36.52;100681.72;5009736;28;20029;-69
2022/09/22 07:26:10;;;;;;;4.63;2.22;;;;;;;26.14;36.75;100692.81;5009411;28;20026;-69
2022/09/22 07:28:36;;;;;;;4.53;2.30;;;;;;;25.95;37.19;100675.28;5009625;28;20044;-69
2022/09/22 07:31:10;;;;;;;4.70;2.15;;;;;;;26.06;37.17;100681.72;5009716;28;20026;-70
2022/09/22 07:33:37;;;;;;;5.10;2.50;;;;;;;25.99;37.08;100678.63;5009388;28;20049;-69
2022/09/22 07:36:07;;;;;;;3.85;2.25;;;;;;;25.65;36.92;100687.94;5009376;28;20029;-69
2022/09/22 07:38:38;;;;;;;6.32;2.50;;;;;;;25.29;37.99;100680.03;5011816;28;20026;-69
2022/09/22 07:41:06;;;;;;;4.25;2.00;;;;;;;24.93;39.00;100683.94;5020139;28;20021;-69
2022/09/22 07:43:32;;;;;;;4.70;2.05;;;;;;;24.90;39.52;100678.75;5031984;28;20120;-69
2022/09/22 07:45:58;;;;;;;3.40;2.35;;;;;;;24.89;39.35;100682.47;5030017;28;20762;-70
2022/09/22 07:48:37;;;;;;;4.85;2.65;;;;;;;24.74;39.46;100678.25;5013873;28;20112;-69
2022/09/22 07:51:03;;;;;;;5.20;2.50;;;;;;;24.70;40.17;100665.88;5011402;28;20088;-70
2022/09/22 07:53:30;;;;;;;5.43;2.80;;;;;;;24.60;39.94;100675.72;5011713;28;20026;-70
2022/09/22 07:56:01;;;;;;;4.88;2.45;;;;;;;24.18;40.71;100657.38;5012457;28;20494;-71
2022/09/22 07:58:27;;;;;;;3.95;1.73;;;;;;;23.97;41.81;100664.47;5031119;28;20025;-71
2022/09/22 08:00:52;;;;;;;4.65;2.15;;;;;;;24.14;41.40;100672.19;5034401;28;20048;-71
2022/09/22 08:03:17;;;;;;;3.08;1.90;;;;;;;23.52;40.66;100678.84;5033287;28;20025;-70
2022/09/22 08:05:45;;;;;;;5.50;2.60;;;;;;;22.99;42.30;100677.34;5032529;28;20087;-71
2022/09/22 08:08:11;;;;;;;3.42;2.10;;;;;;;22.14;43.45;100669.03;5020888;28;20447;-70
2022/09/22 08:10:37;;;;;;;6.43;2.63;;;;;;;22.10;44.79;100667.50;5012714;28;20030;-72
2022/09/22 08:13:03;;;;;;;3.90;2.30;;;;;;;21.63;45.43;100673.44;5015225;28;20038;-71
2022/09/22 08:15:29;;;;;;;4.43;2.40;;;;;;;21.67;45.76;100674.09;5012600;28;20037;-69
2022/09/22 08:17:56;;;;;;;4.95;2.40;;;;;;;21.77;46.07;100659.00;5012671;28;20129;-73
2022/09/22 08:20:24;;;;;;;4.63;2.42;;;;;;;22.04;46.00;100667.94;5012668;28;20033;-72
2022/09/22 08:22:56;;;;;;;5.05;2.53;;;;;;;21.83;45.71;100658.56;5012548;28;20100;-72
2022/09/22 08:25:24;;;;;;;6.57;2.90;;;;;;;21.95;46.00;100658.59;5012917;28;20034;-72
2022/09/22 08:27:49;;;;;;;4.18;2.20;;;;;;;21.84;45.35;100653.06;5012822;28;20030;-72
2022/09/22 08:30:16;;;;;;;5.32;2.25;;;;;;;21.95;45.51;100653.19;5015076;28;20041;-71
2022/09/22 08:32:41;;;;;;;4.60;2.33;;;;;;;21.92;46.73;100655.25;5014825;28;20078;-71
2022/09/22 08:35:07;;;;;;;4.22;2.28;;;;;;;21.84;46.93;100649.47;5034106;28;20029;-70
2022/09/22 08:37:34;;;;;;;4.20;2.30;;;;;;;22.24;46.18;100644.88;5025553;28;20033;-72
2022/09/22 08:40:00;;;;;;;3.65;1.92;;;;;;;22.82;45.12;100648.75;5012416;28;20113;-71
2022/09/22 08:42:27;;;;;;;3.05;1.90;;;;;;;22.67;45.11;100657.97;5012072;28;20133;-72
2022/09/22 08:45:20;;;;;;;4.05;1.77;;;;;;;22.80;45.04;100628.16;5012597;28;20026;-73
2022/09/22 08:53:36;;;;;;;3.33;1.80;;;;;;;23.66;42.74;100646.94;5011407;28;20033;-71
2022/09/22 08:56:22;;;;;;;5.28;2.17;;;;;;;23.86;43.25;100657.13;5011626;28;20033;-72
2022/09/22 08:59:06;;;;;;;3.35;2.10;;;;;;;24.16;42.53;100648.47;5012186;28;20107;-70
2022/09/22 09:01:55;;;;;;;4.05;1.70;;;;;;;24.23;41.07;100652.47;5011904;28;20030;-72
2022/09/22 09:04:34;;;;;;;2.83;1.23;;;;;;;24.58;40.84;100645.94;5011663;28;20778;-72
2022/09/22 09:07:07;;;;;;;3.38;1.38;;;;;;;24.94;41.53;100635.81;5012336;28;20465;-73
2022/09/22 09:10:01;;;;;;;1.95;1.23;;;;;;;25.06;40.05;100652.00;5012334;28;20037;-73
2022/09/22 09:12:51;;;;;;;3.03;1.45;;;;;;;24.97;40.55;100650.03;5011473;28;20432;-72
2022/09/22 09:15:47;;;;;;;4.65;1.60;;;;;;;24.51;40.24;100657.44;5011660;28;20038;-73
2022/09/22 09:18:24;;;;;;;2.30;1.23;;;;;;;24.05;40.30;100651.19;5010833;28;20087;-72
2022/09/22 09:20:51;;;;;;;2.35;1.23;;;;;;;24.17;41.06;100651.06;5010890;28;20136;-71
2022/09/22 09:23:28;;;;;;;2.60;1.00;;;;;;;23.89;39.62;100654.16;5010513;28;20032;-72
2022/09/22 09:25:54;;;;;;;2.22;1.05;;;;;;;24.30;40.05;100651.00;5010909;28;20490;-72
2022/09/22 09:28:30;;;;;;;2.78;1.40;;;;;;;24.61;39.67;100644.84;5010992;28;20029;-74
2022/09/22 09:31:07;;;;;;;1.67;1.10;;;;;;;24.38;39.51;100646.66;5011174;28;20037;-73
2022/09/22 09:33:53;;;;;;;3.05;1.20;;;;;;;24.41;40.26;100642.84;5010819;28;20489;-72
2022/09/22 09:36:21;;;;;;;2.55;1.20;;;;;;;24.83;40.81;100647.56;5011359;28;20026;-73
2022/09/22 09:38:54;;;;;;;2.72;0.95;;;;;;;24.93;39.20;100639.50;5019122;28;20380;-73
2022/09/22 09:41:30;;;;;;;1.80;1.08;;;;;;;25.20;38.82;100653.59;5031094;28;20025;-73
2022/09/22 09:43:56;;;;;;;3.33;1.40;;;;;;;25.45;38.11;100656.88;5030265;28;20417;-73
2022/09/22 09:46:41;;;;;;;1.95;1.27;;;;;;;25.72;39.15;100640.06;5029986;28;20074;-73
2022/09/22 09:49:16;;;;;;;4.15;1.10;;;;;;;25.63;38.24;100636.25;5029609;28;20021;-73
2022/09/22 09:51:44;;;;;;;1.60;0.90;;;;;;;25.83;37.32;100638.16;5029747;28;20088;-73
2022/09/22 09:54:17;;;;;;;2.33;0.98;;;;;;;26.06;36.01;100638.06;5029667;28;20440;-73
2022/09/22 09:57:05;;;;;;;2.30;0.90;;;;;;;26.02;37.31;100636.59;5025534;28;20029;-73
2022/09/22 10:02:24;;;;;;;1.92;0.80;;;;;;;25.33;38.95;100638.81;5010058;28;20049;-73
2022/09/22 10:04:54;;;;;;;2.38;0.90;;;;;;;25.39;38.71;100630.16;5010323;28;20147;-73
2022/09/22 10:07:25;;;;;;;3.22;0.90;;;;;;;25.82;37.70;100614.63;5016870;28;20116;-74
2022/09/22 10:09:52;;;;;;;3.60;0.88;;;;;;;26.16;37.66;100615.31;5032166;28;20032;-74
2022/09/22 10:12:21;;;;;;;2.00;0.90;;;;;;;26.41;35.33;100616.78;5029758;28;20056;-74
2022/09/22 10:14:51;;;;;;;1.90;1.00;;;;;;;26.85;34.39;100619.16;5030361;28;20120;-74
2022/09/22 10:17:20;;;;;;;2.35;1.20;;;;;;;26.44;35.35;100619.22;5029649;28;20055;-74
2022/09/22 10:19:46;;;;;;;5.90;1.83;;;;;;;26.48;36.88;100607.00;5029442;28;20033;-73
2022/09/22 10:22:21;;;;;;;3.03;1.02;;;;;;;26.45;34.97;100602.72;5029529;28;20075;-75
2022/09/22 10:24:58;;;;;;;3.28;1.60;;;;;;;26.60;35.97;100603.19;5029410;28;20049;-74
2022/09/22 10:27:26;;;;;;;1.75;0.90;;;;;;;26.89;35.23;100582.34;5029250;28;20040;-73
2022/09/22 10:30:09;;;;;;;1.45;0.82;;;;;;;27.15;34.17;100597.22;5029368;28;20039;-75
2022/09/22 10:32:35;;;;;;;;;;;;;;;26.81;36.85;100593.97;5025186;28;20497;-75
2022/09/22 10:35:24;;;;;;;2.03;0.93;;;;;;;27.24;37.02;100585.44;5009804;28;19913;-74
2022/09/22 10:37:51;;;;;;;6.93;2.58;;;;;;;27.13;34.78;100578.22;5009185;28;20090;-74
2022/09/22 10:40:20;;;;;;;3.05;1.40;;;;;;;27.22;34.86;100582.00;5009916;28;20025;-73
2022/09/22 10:42:47;;;;;;;1.60;0.90;;;;;;;27.29;34.31;100577.72;5030135;28;20037;-74
2022/09/22 10:45:15;;;;;;;1.95;0.90;;;;;;;27.73;35.44;100588.09;5029140;28;20033;-74
2022/09/22 10:47:47;;;;;;;1.25;0.52;;;;;;;27.77;33.59;100585.94;5011650;28;20490;-74
2022/09/22 10:50:50;;;;;;;4.78;1.02;;;;;;;28.01;32.00;100581.75;5029180;28;20407;-74
2022/09/22 10:53:16;;;;;;;2.47;0.80;;;;;;;28.02;32.96;100588.94;5028880;28;20033;-74
2022/09/22 10:56:09;;;;;;;1.73;0.93;;;;;;;27.91;33.63;100580.91;5029028;28;20029;-73
2022/09/22 10:58:59;;;;;;;2.05;0.85;;;;;;;27.90;34.03;100579.19;5009966;28;20026;-74
2022/09/22 11:01:51;;;;;;;2.35;0.65;;;;;;;28.29;34.57;100579.94;5009295;28;20037;-75
2022/09/22 11:04:35;;;;;;;1.52;0.75;;;;;;;28.57;34.49;100581.75;5009274;28;20486;-75
2022/09/22 11:13:47;;;;;;;7.27;1.00;;;;;;;28.56;33.83;100576.41;4983093;28;20038;-75
2022/09/22 11:16:28;;;;;;;2.75;0.80;;;;;;;28.74;33.40;100569.13;5013545;28;20029;-75
2022/09/22 11:19:19;;;;;;;6.20;2.45;;;;;;;28.74;30.55;100571.88;5013232;28;20470;-75
2022/09/22 11:22:05;;;;;;;6.00;1.30;;;;;;;28.57;33.18;100567.22;5012895;28;20538;-73
2022/09/22 11:24:30;;;;;;;0.85;0.43;;;;;;;28.14;32.42;100563.13;5012845;28;20034;-74
2022/09/22 11:27:00;;;;;;;1.50;0.60;;;;;;;28.26;32.17;100553.75;5013224;28;20037;-75
2022/09/22 11:29:50;;;;;;;2.17;0.70;;;;;;;28.57;33.44;100567.22;5012968;28;20041;-74
2022/09/22 11:32:24;;;;;;;2.42;0.70;;;;;;;28.38;34.25;100558.00;5025978;28;20032;-75
2022/09/22 11:35:11;;;;;;;2.55;1.00;;;;;;;28.19;33.20;100555.34;5033354;28;20409;-75
2022/09/22 11:38:00;;;;;;;2.47;0.77;;;;;;;28.66;33.39;100561.69;5026624;28;20108;-74
2022/09/22 11:41:01;;;;;;;2.75;0.60;;;;;;;28.90;31.34;100558.34;5013812;28;20037;-76
2022/09/22 11:43:51;;;;;;;1.67;0.70;;;;;;;28.87;30.47;100547.72;5013575;28;20032;-75
2022/09/22 11:46:39;;;;;;;1.00;0.70;;;;;;;28.97;31.14;100548.53;5013085;28;20048;-75
2022/09/22 11:49:16;;;;;;;3.63;0.70;;;;;;;28.90;32.12;100542.78;5012739;28;20057;-76
2022/09/22 11:52:41;;;;;;;2.20;0.80;;;;;;;29.03;31.88;100548.75;5012919;28;20033;-75
2022/09/22 11:55:34;;;;;;;2.05;0.60;;;;;;;28.96;33.02;100538.59;4932693;29;20036;-75
2022/09/22 11:58:07;;;;;;;1.35;0.50;;;;;;;29.04;33.57;100536.81;5021357;28;20034;-75
2022/09/22 12:00:35;;;;;;;;;;;;;;;29.39;31.42;100538.75;4997821;28;20052;-75